Time;durP1;ratioP1;P1;durP2;ratioP2;P2;SDS_P1;SDS_P2;PMS_P1;PMS_P2;Temp;Humidity;BMP_temperature;BMP_pressure;BME280_temperature;BME280_humidity;BME280_pressure;Samples;Min_cycle;Max_cycle;Signal;HPM_P1;HPM_P2
2023/06/14 00:02:22;;;;;;;7.53;5.72;;;;;;;;;;5094636;28;20409;-67
2023/06/14 00:04:51;;;;;;;8.60;6.07;;;;;;;;;;5094538;28;20386;-67
2023/06/14 00:07:18;;;;;;;8.63;5.87;;;;;;;;;;5076037;28;20465;-67
2023/06/14 00:09:44;;;;;;;9.65;6.70;;;;;;;;;;5094012;28;20393;-67
2023/06/14 00:12:10;;;;;;;6.93;5.75;;;;;;;;;;5094031;28;20902;-67
2023/06/14 00:14:36;;;;;;;10.02;6.45;;;;;;;;;;5094046;28;20427;-67
2023/06/14 00:17:02;;;;;;;9.47;5.90;;;;;;;;;;5076981;28;20181;-66
2023/06/14 00:19:29;;;;;;;8.30;6.20;;;;;;;;;;5095221;28;20200;-67
2023/06/14 00:21:55;;;;;;;9.43;6.00;;;;;;;;;;5077077;28;20200;-67
2023/06/14 00:24:21;;;;;;;8.23;6.13;;;;;;;;;;5095101;28;20176;-67
2023/06/14 00:26:47;;;;;;;11.73;6.03;;;;;;;;;;5095104;28;20200;-68
2023/06/14 00:29:13;;;;;;;8.17;5.83;;;;;;;;;;5077297;28;20201;-67
2023/06/14 00:31:39;;;;;;;6.83;5.97;;;;;;;;;;5077282;28;20276;-67
2023/06/14 00:34:05;;;;;;;8.80;5.90;;;;;;;;;;5095204;28;20173;-67
2023/06/14 00:36:31;;;;;;;8.63;6.00;;;;;;;;;;5095409;28;20181;-68
2023/06/14 00:38:57;;;;;;;13.07;6.47;;;;;;;;;;5077189;28;20204;-67
2023/06/14 00:41:23;;;;;;;7.97;5.70;;;;;;;;;;5095297;28;20698;-67
2023/06/14 00:43:49;;;;;;;9.07;6.20;;;;;;;;;;5094722;28;20661;-67
2023/06/14 00:46:15;;;;;;;11.83;6.73;;;;;;;;;;5076997;28;20686;-67
2023/06/14 00:48:41;;;;;;;11.53;6.47;;;;;;;;;;5094743;28;20304;-68
2023/06/14 00:51:07;;;;;;;7.47;5.27;;;;;;;;;;5076417;28;20215;-68
2023/06/14 00:53:35;;;;;;;8.87;6.10;;;;;;;;;;5094470;28;20177;-67
2023/06/14 00:56:01;;;;;;;9.07;6.33;;;;;;;;;;5076498;28;20551;-67
2023/06/14 00:58:28;;;;;;;7.60;6.10;;;;;;;;;;5094277;28;20271;-68
2023/06/14 01:00:54;;;;;;;7.93;6.33;;;;;;;;;;5094905;28;20169;-68
2023/06/14 01:03:21;;;;;;;9.97;5.77;;;;;;;;;;5094298;28;20165;-68
2023/06/14 01:05:48;;;;;;;6.10;5.40;;;;;;;;;;5094468;28;20187;-68
2023/06/14 01:08:23;;;;;;;9.13;6.17;;;;;;;;;;5094283;28;20242;-68
2023/06/14 01:10:57;;;;;;;7.00;5.83;;;;;;;;;;5094152;28;20176;-67
2023/06/14 01:13:25;;;;;;;8.17;6.07;;;;;;;;;;5094066;28;20240;-67
2023/06/14 01:15:52;;;;;;;6.70;5.87;;;;;;;;;;5094133;28;20188;-67
2023/06/14 01:18:18;;;;;;;8.43;5.77;;;;;;;;;;5094223;28;20232;-68
2023/06/14 01:20:52;;;;;;;8.80;5.90;;;;;;;;;;5094320;28;20281;-68
2023/06/14 01:23:18;;;;;;;9.23;4.83;;;;;;;;;;5093915;28;20206;-68
2023/06/14 01:25:44;;;;;;;7.03;5.60;;;;;;;;;;5093840;28;20181;-68
2023/06/14 01:28:12;;;;;;;10.60;5.77;;;;;;;;;;5093719;28;20204;-68
2023/06/14 01:30:42;;;;;;;7.77;5.60;;;;;;;;;;5093900;28;20284;-67
2023/06/14 01:33:08;;;;;;;8.77;5.53;;;;;;;;;;5094168;28;20157;-68
2023/06/14 01:35:35;;;;;;;11.07;5.90;;;;;;;;;;5075583;28;20169;-67
2023/06/14 01:38:02;;;;;;;8.70;5.87;;;;;;;;;;5093923;28;20224;-67
2023/06/14 01:40:28;;;;;;;11.13;5.20;;;;;;;;;;5075500;28;20296;-67
2023/06/14 01:42:54;;;;;;;8.77;5.60;;;;;;;;;;5093617;28;20178;-67
2023/06/14 01:45:20;;;;;;;8.87;5.53;;;;;;;;;;5093565;28;20208;-68
2023/06/14 01:47:47;;;;;;;10.20;5.80;;;;;;;;;;5075299;28;20586;-67
2023/06/14 01:50:13;;;;;;;9.33;5.60;;;;;;;;;;5093259;28;20205;-68
2023/06/14 01:52:39;;;;;;;10.67;5.57;;;;;;;;;;5093499;28;20177;-68
2023/06/14 01:55:06;;;;;;;6.57;5.60;;;;;;;;;;5092958;28;20174;-67
2023/06/14 01:57:33;;;;;;;11.13;5.67;;;;;;;;;;5093489;28;20207;-67
2023/06/14 01:59:59;;;;;;;8.93;5.33;;;;;;;;;;5093229;28;20275;-67
2023/06/14 02:02:25;;;;;;;8.17;5.67;;;;;;;;;;5093480;28;20172;-68
2023/06/14 02:04:52;;;;;;;9.00;5.90;;;;;;;;;;5093280;28;20173;-67
2023/06/14 02:07:18;;;;;;;9.40;6.07;;;;;;;;;;5075269;28;20209;-67
2023/06/14 02:09:44;;;;;;;11.17;5.37;;;;;;;;;;5093266;28;20201;-67
2023/06/14 02:12:10;;;;;;;11.37;5.20;;;;;;;;;;5093569;28;20180;-67
2023/06/14 02:14:38;;;;;;;7.87;5.50;;;;;;;;;;5075281;28;20207;-67
2023/06/14 02:17:04;;;;;;;5.87;5.23;;;;;;;;;;5094169;28;20538;-68
2023/06/14 02:19:30;;;;;;;9.40;5.50;;;;;;;;;;5093351;28;20269;-67
2023/06/14 02:21:56;;;;;;;10.40;5.50;;;;;;;;;;5094000;28;20226;-67
2023/06/14 02:24:23;;;;;;;6.63;4.90;;;;;;;;;;5075491;28;20181;-67
2023/06/14 02:26:50;;;;;;;10.23;6.10;;;;;;;;;;5075062;28;20238;-67
2023/06/14 02:29:16;;;;;;;6.33;5.70;;;;;;;;;;5075025;28;20228;-67
2023/06/14 02:31:42;;;;;;;6.77;5.47;;;;;;;;;;5093255;28;20192;-67
2023/06/14 02:34:08;;;;;;;6.63;5.33;;;;;;;;;;5093268;28;20549;-67
2023/06/14 02:36:34;;;;;;;6.63;5.07;;;;;;;;;;5075259;28;20662;-67
2023/06/14 02:39:00;;;;;;;6.37;4.97;;;;;;;;;;5075086;28;20193;-67
2023/06/14 02:41:27;;;;;;;12.20;6.33;;;;;;;;;;5093826;28;20185;-67
2023/06/14 02:43:53;;;;;;;8.43;5.43;;;;;;;;;;5075599;28;20227;-67
2023/06/14 02:46:19;;;;;;;9.17;5.20;;;;;;;;;;5094987;28;20603;-67
2023/06/14 02:48:45;;;;;;;8.73;5.17;;;;;;;;;;5095628;28;20689;-67
2023/06/14 02:51:12;;;;;;;8.77;5.67;;;;;;;;;;5101956;28;20646;-68
2023/06/14 02:53:38;;;;;;;9.87;5.63;;;;;;;;;;5088386;28;20189;-67
2023/06/14 02:56:05;;;;;;;8.33;5.20;;;;;;;;;;5105569;28;20256;-67
2023/06/14 02:58:31;;;;;;;9.83;5.23;;;;;;;;;;5081831;28;20208;-68
2023/06/14 03:00:57;;;;;;;12.63;5.67;;;;;;;;;;5079268;28;20542;-68
2023/06/14 03:03:25;;;;;;;9.67;5.87;;;;;;;;;;5096780;28;20241;-68
2023/06/14 03:05:51;;;;;;;11.97;5.80;;;;;;;;;;5096968;28;20214;-67
2023/06/14 03:08:19;;;;;;;10.27;5.33;;;;;;;;;;5099075;28;20201;-67
2023/06/14 03:10:48;;;;;;;12.80;6.07;;;;;;;;;;5099166;28;20193;-67
2023/06/14 03:13:15;;;;;;;8.87;5.40;;;;;;;;;;5099607;28;20169;-67
2023/06/14 03:15:41;;;;;;;6.03;5.17;;;;;;;;;;5099062;28;20204;-67
2023/06/14 03:18:11;;;;;;;10.90;5.37;;;;;;;;;;5099031;28;20173;-67
2023/06/14 03:20:37;;;;;;;13.73;5.53;;;;;;;;;;5099083;28;20193;-67
2023/06/14 03:23:05;;;;;;;9.53;5.00;;;;;;;;;;5099173;28;20204;-67
2023/06/14 03:25:31;;;;;;;10.38;5.55;;;;;;;;;;5097518;28;20389;-67
2023/06/14 03:27:57;;;;;;;11.83;5.10;;;;;;;;;;5079045;28;20197;-67
2023/06/14 03:30:23;;;;;;;10.27;4.73;;;;;;;;;;5096273;28;20181;-67
2023/06/14 03:32:51;;;;;;;12.00;4.80;;;;;;;;;;5096556;28;20718;-68
2023/06/14 03:35:17;;;;;;;9.80;4.87;;;;;;;;;;5096194;28;20546;-67
2023/06/14 03:37:47;;;;;;;7.20;4.67;;;;;;;;;;5096150;28;20176;-68
2023/06/14 03:40:17;;;;;;;9.63;5.23;;;;;;;;;;5095985;28;20197;-67
2023/06/14 03:42:43;;;;;;;8.13;4.70;;;;;;;;;;5096268;28;20211;-68
2023/06/14 03:45:09;;;;;;;8.83;4.67;;;;;;;;;;5096053;28;20208;-67
2023/06/14 03:47:35;;;;;;;11.30;5.00;;;;;;;;;;5077793;28;20217;-68
2023/06/14 03:50:02;;;;;;;10.03;5.07;;;;;;;;;;5077642;28;20272;-67
2023/06/14 03:52:28;;;;;;;7.77;5.20;;;;;;;;;;5077620;28;20618;-68
2023/06/14 03:54:54;;;;;;;7.73;4.73;;;;;;;;;;5077774;28;20181;-68
2023/06/14 03:57:21;;;;;;;8.13;4.30;;;;;;;;;;5095714;28;20256;-68
2023/06/14 03:59:47;;;;;;;10.20;5.00;;;;;;;;;;5077440;28;20751;-68
2023/06/14 04:02:17;;;;;;;11.57;4.83;;;;;;;;;;5095650;28;20256;-68
2023/06/14 04:04:45;;;;;;;10.03;5.00;;;;;;;;;;5095625;28;20551;-68
2023/06/14 04:07:11;;;;;;;6.20;4.20;;;;;;;;;;5077261;28;20781;-68
2023/06/14 04:09:37;;;;;;;8.33;4.70;;;;;;;;;;5095543;28;20670;-68
2023/06/14 04:12:04;;;;;;;8.00;4.63;;;;;;;;;;5077684;28;20177;-67
2023/06/14 04:14:30;;;;;;;7.73;4.97;;;;;;;;;;5078070;28;20667;-68
2023/06/14 04:16:56;;;;;;;7.03;4.27;;;;;;;;;;5076847;28;20181;-67
2023/06/14 04:19:22;;;;;;;10.83;4.50;;;;;;;;;;5077259;28;20209;-68
2023/06/14 04:21:48;;;;;;;6.93;4.80;;;;;;;;;;5077045;28;20185;-68
2023/06/14 04:24:16;;;;;;;9.33;4.73;;;;;;;;;;5095599;28;20172;-68
2023/06/14 04:26:44;;;;;;;9.57;5.13;;;;;;;;;;5095320;28;20218;-68
2023/06/14 04:29:14;;;;;;;11.83;4.57;;;;;;;;;;5095137;28;20192;-68
2023/06/14 04:31:40;;;;;;;8.80;4.60;;;;;;;;;;5095547;28;20172;-68
2023/06/14 04:34:06;;;;;;;5.03;3.93;;;;;;;;;;5076714;28;20173;-68
2023/06/14 04:36:41;;;;;;;5.87;3.97;;;;;;;;;;5076617;28;20169;-68
2023/06/14 04:39:07;;;;;;;8.30;4.30;;;;;;;;;;5094723;28;20746;-68
2023/06/14 04:41:34;;;;;;;7.87;4.97;;;;;;;;;;5095391;28;20540;-68
2023/06/14 04:44:02;;;;;;;12.50;4.43;;;;;;;;;;5076769;28;20246;-68
2023/06/14 04:46:30;;;;;;;6.47;3.73;;;;;;;;;;5094822;28;20173;-68
2023/06/14 04:48:56;;;;;;;7.53;4.23;;;;;;;;;;5094526;28;20201;-68
2023/06/14 04:51:29;;;;;;;9.80;4.33;;;;;;;;;;5076349;28;20177;-68
2023/06/14 04:53:56;;;;;;;11.13;4.27;;;;;;;;;;5076316;28;20173;-68
2023/06/14 04:56:23;;;;;;;11.23;4.20;;;;;;;;;;5094963;28;20218;-68
2023/06/14 04:58:49;;;;;;;10.10;4.30;;;;;;;;;;5076171;28;20197;-68
2023/06/14 05:01:15;;;;;;;11.23;4.60;;;;;;;;;;5094288;28;20199;-68
2023/06/14 05:03:41;;;;;;;8.17;4.57;;;;;;;;;;5094347;28;20209;-68
2023/06/14 05:06:07;;;;;;;10.07;4.70;;;;;;;;;;5094230;28;20180;-68
2023/06/14 05:08:33;;;;;;;9.80;4.60;;;;;;;;;;5094039;28;20569;-67
2023/06/14 05:10:59;;;;;;;8.27;4.43;;;;;;;;;;5094099;28;20196;-68
2023/06/14 05:13:27;;;;;;;9.17;4.20;;;;;;;;;;5094299;28;20604;-68
2023/06/14 05:15:53;;;;;;;15.20;4.40;;;;;;;;;;5094112;28;20169;-68
2023/06/14 05:18:19;;;;;;;6.23;3.97;;;;;;;;;;5075715;28;20185;-68
2023/06/14 05:20:45;;;;;;;8.20;4.33;;;;;;;;;;5075843;28;20193;-67
2023/06/14 05:23:14;;;;;;;7.80;4.30;;;;;;;;;;5075674;28;20188;-68
2023/06/14 05:25:41;;;;;;;9.57;4.33;;;;;;;;;;5075724;28;20294;-68
2023/06/14 05:28:07;;;;;;;8.33;4.57;;;;;;;;;;5093765;28;20746;-68
2023/06/14 05:30:33;;;;;;;12.57;4.20;;;;;;;;;;5075541;28;20220;-68
2023/06/14 05:32:59;;;;;;;10.13;4.10;;;;;;;;;;5093746;28;20176;-68
2023/06/14 05:35:26;;;;;;;10.57;4.40;;;;;;;;;;5093716;28;20180;-68
2023/06/14 05:37:53;;;;;;;5.20;4.07;;;;;;;;;;5075535;28;20185;-68
2023/06/14 05:40:19;;;;;;;8.13;4.17;;;;;;;;;;5115195;22;20224;-65
2023/06/14 05:42:46;;;;;;;8.07;4.23;;;;;;;;;;5093952;28;20264;-65
2023/06/14 05:45:12;;;;;;;9.90;4.63;;;;;;;;;;5093764;28;20208;-65
2023/06/14 05:47:38;;;;;;;6.23;3.83;;;;;;;;;;5093531;28;20197;-65
2023/06/14 05:50:04;;;;;;;9.13;4.70;;;;;;;;;;5093636;28;20204;-65
2023/06/14 05:52:31;;;;;;;6.60;4.43;;;;;;;;;;5075648;28;20173;-65
2023/06/14 05:54:57;;;;;;;5.80;3.87;;;;;;;;;;5075392;28;20702;-65
2023/06/14 05:57:23;;;;;;;6.87;3.97;;;;;;;;;;5093603;28;20557;-64
2023/06/14 05:59:50;;;;;;;5.73;2.60;;;;;;;;;;5075576;28;20197;-64
2023/06/14 06:02:16;;;;;;;10.40;4.03;;;;;;;;;;5075365;28;20273;-65
2023/06/14 06:04:42;;;;;;;8.83;4.80;;;;;;;;;;5093410;28;20258;-65
2023/06/14 06:07:08;;;;;;;9.60;4.07;;;;;;;;;;5093620;28;20246;-64
2023/06/14 06:09:34;;;;;;;12.30;4.40;;;;;;;;;;5075233;28;20197;-65
2023/06/14 06:12:00;;;;;;;8.23;3.93;;;;;;;;;;5093517;28;20173;-65
2023/06/14 06:14:26;;;;;;;12.93;4.67;;;;;;;;;;5093358;28;20256;-65
2023/06/14 06:16:52;;;;;;;11.70;4.47;;;;;;;;;;5093319;28;20284;-65
2023/06/14 06:19:18;;;;;;;10.37;4.40;;;;;;;;;;5093164;28;20199;-65
2023/06/14 06:21:44;;;;;;;12.13;4.57;;;;;;;;;;5075083;28;20185;-65
2023/06/14 06:24:10;;;;;;;10.67;4.03;;;;;;;;;;5093755;28;20185;-67
2023/06/14 06:26:36;;;;;;;5.80;3.67;;;;;;;;;;5074918;28;20179;-65
2023/06/14 06:29:02;;;;;;;12.10;4.17;;;;;;;;;;5093022;28;20227;-65
2023/06/14 06:31:28;;;;;;;8.27;4.23;;;;;;;;;;5093333;28;20173;-65
2023/06/14 06:33:55;;;;;;;5.80;3.97;;;;;;;;;;5093307;28;20174;-66
2023/06/14 06:36:21;;;;;;;15.77;3.77;;;;;;;;;;5093820;28;20177;-66
2023/06/14 06:38:47;;;;;;;7.63;4.20;;;;;;;;;;5092967;28;20180;-66
2023/06/14 06:41:13;;;;;;;9.53;3.90;;;;;;;;;;5095933;28;20633;-66
2023/06/14 06:43:39;;;;;;;9.03;3.80;;;;;;;;;;5097020;28;20252;-66
2023/06/14 06:46:05;;;;;;;7.37;4.33;;;;;;;;;;5097068;28;20207;-66
2023/06/14 06:48:31;;;;;;;8.30;3.53;;;;;;;;;;5096896;28;20236;-66
2023/06/14 06:50:57;;;;;;;5.97;3.40;;;;;;;;;;5096931;28;20169;-65
2023/06/14 06:53:23;;;;;;;5.77;3.67;;;;;;;;;;5097218;28;20253;-66
2023/06/14 06:55:49;;;;;;;9.33;3.90;;;;;;;;;;5097642;28;20177;-66
2023/06/14 06:58:15;;;;;;;5.77;3.33;;;;;;;;;;5097154;28;20176;-66
2023/06/14 07:00:41;;;;;;;6.93;2.90;;;;;;;;;;5099118;28;20197;-65
2023/06/14 07:03:07;;;;;;;6.57;3.07;;;;;;;;;;5082412;28;20561;-65
2023/06/14 07:05:33;;;;;;;3.90;2.47;;;;;;;;;;5100431;28;20180;-64
2023/06/14 07:07:59;;;;;;;11.07;3.60;;;;;;;;;;5099910;28;20205;-64
2023/06/14 07:10:25;;;;;;;7.57;3.30;;;;;;;;;;5081174;28;20278;-64
2023/06/14 07:12:51;;;;;;;9.13;3.10;;;;;;;;;;5081343;28;20201;-64
2023/06/14 07:15:17;;;;;;;9.47;2.83;;;;;;;;;;5099613;28;20177;-65
2023/06/14 07:17:43;;;;;;;11.13;3.00;;;;;;;;;;5099523;28;20537;-64
2023/06/14 07:20:13;;;;;;;3.23;2.70;;;;;;;;;;5099566;28;20197;-64
2023/06/14 07:22:43;;;;;;;9.77;3.27;;;;;;;;;;5099580;28;20556;-64
2023/06/14 07:25:15;;;;;;;4.43;2.13;;;;;;;;;;5081533;28;20185;-64
2023/06/14 07:27:42;;;;;;;4.10;2.43;;;;;;;;;;5099589;28;20231;-64
2023/06/14 07:30:08;;;;;;;3.17;2.33;;;;;;;;;;5099277;28;20193;-64
2023/06/14 07:32:34;;;;;;;7.13;2.60;;;;;;;;;;5099125;28;20196;-64
2023/06/14 07:35:00;;;;;;;3.33;2.50;;;;;;;;;;5099180;28;20180;-64
2023/06/14 07:37:26;;;;;;;6.57;2.73;;;;;;;;;;5099352;28;20255;-64
2023/06/14 07:39:52;;;;;;;3.70;2.50;;;;;;;;;;5080446;28;20266;-64
2023/06/14 07:42:18;;;;;;;6.13;2.77;;;;;;;;;;5099535;28;20173;-65
2023/06/14 07:44:44;;;;;;;6.33;2.70;;;;;;;;;;5099485;28;20181;-64
2023/06/14 07:47:10;;;;;;;5.30;2.47;;;;;;;;;;5099390;28;20548;-65
2023/06/14 07:49:37;;;;;;;5.63;2.50;;;;;;;;;;5099146;28;20238;-65
2023/06/14 07:52:04;;;;;;;2.60;2.40;;;;;;;;;;5098077;28;20204;-65
2023/06/14 07:54:32;;;;;;;2.73;2.40;;;;;;;;;;5098290;28;20168;-65
2023/06/14 07:57:00;;;;;;;3.80;2.53;;;;;;;;;;5097616;28;20169;-65
2023/06/14 07:59:26;;;;;;;6.47;2.60;;;;;;;;;;5097759;28;20197;-64
2023/06/14 08:01:52;;;;;;;7.43;3.43;;;;;;;;;;5078994;28;20180;-65
2023/06/14 08:04:18;;;;;;;3.00;2.70;;;;;;;;;;5097529;28;20181;-67
2023/06/14 08:06:45;;;;;;;4.90;2.90;;;;;;;;;;5079420;28;20234;-66
2023/06/14 08:09:11;;;;;;;4.10;2.83;;;;;;;;;;5079836;28;20681;-65
2023/06/14 08:11:37;;;;;;;5.37;2.07;;;;;;;;;;5098299;28;20197;-69
2023/06/14 08:14:03;;;;;;;7.47;2.87;;;;;;;;;;5098567;28;20180;-65
2023/06/14 08:16:29;;;;;;;3.70;2.80;;;;;;;;;;5080295;28;20181;-65
2023/06/14 08:18:56;;;;;;;3.73;2.33;;;;;;;;;;5098101;28;20197;-65
2023/06/14 08:21:22;;;;;;;6.23;3.20;;;;;;;;;;5098342;28;20174;-65
2023/06/14 08:23:48;;;;;;;4.20;2.57;;;;;;;;;;5079873;28;20181;-69
2023/06/14 08:26:14;;;;;;;5.88;3.22;;;;;;;;;;5078267;28;20389;-66
2023/06/14 08:28:40;;;;;;;6.07;3.20;;;;;;;;;;5096482;28;20891;-66
2023/06/14 08:31:06;;;;;;;8.18;3.33;;;;;;;;;;5078462;28;20400;-66
2023/06/14 08:33:35;;;;;;;9.13;3.05;;;;;;;;;;5096839;28;20465;-65
2023/06/14 08:36:01;;;;;;;11.25;3.10;;;;;;;;;;5079142;28;20386;-65
2023/06/14 08:38:27;;;;;;;4.70;2.80;;;;;;;;;;5097345;28;20786;-65
2023/06/14 08:40:53;;;;;;;5.95;2.95;;;;;;;;;;5097147;28;20419;-65
2023/06/14 08:43:19;;;;;;;5.47;2.83;;;;;;;;;;5096271;28;20378;-64
2023/06/14 08:45:47;;;;;;;8.07;3.17;;;;;;;;;;5078822;28;20461;-64
2023/06/14 08:48:17;;;;;;;10.85;3.38;;;;;;;;;;5078333;28;20413;-65
2023/06/14 08:50:44;;;;;;;5.80;2.60;;;;;;;;;;5096964;28;20374;-66
2023/06/14 08:53:13;;;;;;;5.13;2.85;;;;;;;;;;5096826;28;20378;-64
2023/06/14 08:55:39;;;;;;;4.40;2.40;;;;;;;;;;5096775;28;20401;-64
2023/06/14 08:58:05;;;;;;;5.97;2.70;;;;;;;;;;5078010;28;20390;-64
2023/06/14 09:00:32;;;;;;;5.25;2.85;;;;;;;;;;5096529;28;20434;-65
2023/06/14 09:02:58;;;;;;;3.50;2.90;;;;;;;;;;5095592;28;20903;-64
2023/06/14 09:05:25;;;;;;;11.52;2.70;;;;;;;;;;5077484;28;20386;-65
2023/06/14 09:07:51;;;;;;;4.18;2.70;;;;;;;;;;5077459;28;20402;-65
2023/06/14 09:10:17;;;;;;;4.03;2.78;;;;;;;;;;5095640;28;20887;-64
2023/06/14 09:12:43;;;;;;;13.27;2.67;;;;;;;;;;5095693;28;20374;-65
2023/06/14 09:15:10;;;;;;;7.22;3.05;;;;;;;;;;5076949;28;20390;-64
2023/06/14 09:17:36;;;;;;;5.65;3.13;;;;;;;;;;5077373;28;20378;-64
2023/06/14 09:20:06;;;;;;;6.07;2.90;;;;;;;;;;5095692;28;20405;-64
2023/06/14 09:22:32;;;;;;;4.70;2.75;;;;;;;;;;5077314;28;20894;-64
2023/06/14 09:24:59;;;;;;;5.00;2.90;;;;;;;;;;5077466;28;20883;-64
2023/06/14 09:27:28;;;;;;;6.90;3.23;;;;;;;;;;5095514;28;20911;-64
2023/06/14 09:29:54;;;;;;;5.07;2.90;;;;;;;;;;5095799;28;20465;-66
2023/06/14 09:32:21;;;;;;;9.52;3.30;;;;;;;;;;5077199;28;20386;-65
2023/06/14 09:34:47;;;;;;;5.70;3.10;;;;;;;;;;5095610;28;20460;-64
2023/06/14 09:37:13;;;;;;;5.50;2.97;;;;;;;;;;5095788;28;20446;-64
2023/06/14 09:39:52;;;;;;;5.70;2.35;;;;;;;;;;5077263;28;20899;-64
2023/06/14 09:42:19;;;;;;;11.40;2.80;;;;;;;;;;5076604;28;20446;-65
2023/06/14 09:44:48;;;;;;;5.50;2.45;;;;;;;;;;5094774;28;20378;-64
2023/06/14 09:47:15;;;;;;;3.30;2.53;;;;;;;;;;5095002;28;20741;-65
2023/06/14 09:49:41;;;;;;;2.92;2.25;;;;;;;;;;5076132;28;20478;-64
2023/06/14 09:52:07;;;;;;;3.03;2.47;;;;;;;;;;5076516;28;20408;-65
2023/06/14 09:54:37;;;;;;;3.23;2.30;;;;;;;;;;5076479;28;20423;-65
2023/06/14 09:57:03;;;;;;;11.25;2.25;;;;;;;;;;5094538;28;20385;-64
2023/06/14 09:59:31;;;;;;;6.07;2.35;;;;;;;;;;5094378;28;20374;-65
2023/06/14 10:01:59;;;;;;;3.85;2.22;;;;;;;;;;5076140;28;20382;-65
2023/06/14 10:04:25;;;;;;;3.38;2.20;;;;;;;;;;5094884;28;20463;-65
2023/06/14 10:06:53;;;;;;;4.40;2.25;;;;;;;;;;5094864;28;20469;-65
2023/06/14 10:09:19;;;;;;;4.65;2.20;;;;;;;;;;5076559;28;20379;-64
2023/06/14 10:11:46;;;;;;;2.20;2.00;;;;;;;;;;5095151;28;20366;-64
2023/06/14 10:14:16;;;;;;;4.22;1.90;;;;;;;;;;5093962;28;20409;-64
2023/06/14 10:16:50;;;;;;;2.30;2.10;;;;;;;;;;5094698;28;20808;-63
2023/06/14 10:19:35;;;;;;;4.47;2.23;;;;;;;;;;5095025;28;20413;-64
2023/06/14 10:22:03;;;;;;;4.30;1.90;;;;;;;;;;5077348;28;20413;-65
2023/06/14 10:24:41;;;;;;;3.42;1.95;;;;;;;;;;5094395;28;20374;-65
2023/06/14 10:27:10;;;;;;;6.32;2.30;;;;;;;;;;5094843;28;20401;-65
2023/06/14 10:29:56;;;;;;;4.60;1.90;;;;;;;;;;5076910;28;20560;-66
2023/06/14 10:32:25;;;;;;;4.43;2.20;;;;;;;;;;5094560;28;20366;-64
2023/06/14 10:34:57;;;;;;;2.25;1.83;;;;;;;;;;5076160;28;20382;-66
2023/06/14 10:37:26;;;;;;;2.53;1.87;;;;;;;;;;5094733;28;20520;-65
2023/06/14 10:39:55;;;;;;;5.77;1.90;;;;;;;;;;5077531;28;20225;-65
2023/06/14 10:42:22;;;;;;;3.73;2.20;;;;;;;;;;5077583;28;20189;-65
2023/06/14 10:44:52;;;;;;;3.20;1.93;;;;;;;;;;5095179;28;20675;-65
2023/06/14 10:47:24;;;;;;;2.00;1.47;;;;;;;;;;5095739;28;20200;-65
2023/06/14 10:50:10;;;;;;;2.53;1.40;;;;;;;;;;5096015;28;20190;-65
2023/06/14 10:52:41;;;;;;;5.53;1.80;;;;;;;;;;5095954;28;20177;-65
2023/06/14 10:55:10;;;;;;;4.40;2.23;;;;;;;;;;5077610;28;20181;-66
2023/06/14 10:57:38;;;;;;;3.30;2.10;;;;;;;;;;5096319;28;20165;-64
2023/06/14 11:00:12;;;;;;;4.20;1.70;;;;;;;;;;5077945;28;20233;-65
2023/06/14 11:02:46;;;;;;;2.47;1.60;;;;;;;;;;5096530;28;20184;-65
2023/06/14 11:05:15;;;;;;;6.07;2.03;;;;;;;;;;5076918;28;20191;-65
2023/06/14 11:07:41;;;;;;;5.87;1.80;;;;;;;;;;5093639;28;20197;-65
2023/06/14 11:10:16;;;;;;;7.10;1.83;;;;;;;;;;5076779;28;20590;-64
2023/06/14 11:12:42;;;;;;;2.63;1.40;;;;;;;;;;5095700;28;20239;-65
2023/06/14 11:15:08;;;;;;;3.67;1.50;;;;;;;;;;5095231;28;20643;-65
2023/06/14 11:17:35;;;;;;;3.93;1.50;;;;;;;;;;5095357;28;20177;-65
2023/06/14 11:20:16;;;;;;;7.90;1.90;;;;;;;;;;5095343;28;20286;-66
2023/06/14 11:22:42;;;;;;;4.83;1.60;;;;;;;;;;5077624;28;20550;-65
2023/06/14 11:25:10;;;;;;;17.03;1.80;;;;;;;;;;5077219;28;20179;-65
2023/06/14 11:27:35;;;;;;;7.90;1.60;;;;;;;;;;5098290;28;20238;-65
2023/06/14 11:30:02;;;;;;;3.70;1.80;;;;;;;;;;5099270;28;20188;-65
2023/06/14 11:32:28;;;;;;;2.53;1.60;;;;;;;;;;5099169;28;20261;-65
2023/06/14 11:34:54;;;;;;;2.80;1.53;;;;;;;;;;5099118;28;20205;-64
2023/06/14 11:37:20;;;;;;;1.60;1.50;;;;;;;;;;5102130;28;20181;-64
2023/06/14 11:39:46;;;;;;;4.37;2.20;;;;;;;;;;5101946;28;20307;-64
2023/06/14 11:42:16;;;;;;;8.50;2.23;;;;;;;;;;5082401;28;20181;-64
2023/06/14 11:44:42;;;;;;;3.60;2.03;;;;;;;;;;5100632;28;20661;-64
2023/06/14 11:47:08;;;;;;;3.67;1.90;;;;;;;;;;5100348;28;20197;-64
2023/06/14 11:49:37;;;;;;;3.73;2.00;;;;;;;;;;5099587;28;20615;-65
2023/06/14 11:52:03;;;;;;;14.00;2.40;;;;;;;;;;5098888;28;20173;-64
2023/06/14 11:54:29;;;;;;;7.83;1.83;;;;;;;;;;5099914;28;20173;-65
2023/06/14 11:56:55;;;;;;;3.40;1.77;;;;;;;;;;5082406;28;20177;-65
2023/06/14 11:59:21;;;;;;;4.77;1.77;;;;;;;;;;5100903;28;20223;-64
2023/06/14 12:01:48;;;;;;;1.90;1.77;;;;;;;;;;5100168;28;20173;-64
2023/06/14 12:04:14;;;;;;;6.00;1.97;;;;;;;;;;5082280;28;20177;-65
2023/06/14 12:06:40;;;;;;;4.23;2.00;;;;;;;;;;5081506;28;20184;-65
2023/06/14 12:09:10;;;;;;;1.77;1.67;;;;;;;;;;5100419;28;20217;-64
2023/06/14 12:11:36;;;;;;;5.17;1.77;;;;;;;;;;5101665;28;20158;-64
2023/06/14 12:14:06;;;;;;;1.97;1.87;;;;;;;;;;5101568;28;20180;-63
2023/06/14 12:16:32;;;;;;;4.83;1.63;;;;;;;;;;5102086;28;20177;-63
2023/06/14 12:19:02;;;;;;;2.30;1.70;;;;;;;;;;5083578;28;20204;-63
2023/06/14 12:21:28;;;;;;;2.90;1.97;;;;;;;;;;5102623;28;20643;-63
2023/06/14 12:23:55;;;;;;;7.13;1.83;;;;;;;;;;5101056;28;20179;-64
2023/06/14 12:26:21;;;;;;;2.37;1.93;;;;;;;;;;5100400;28;20258;-63
2023/06/14 12:28:47;;;;;;;3.53;2.10;;;;;;;;;;5099818;28;20571;-63
2023/06/14 12:31:14;;;;;;;3.80;1.90;;;;;;;;;;5083291;28;20678;-64
2023/06/14 12:33:41;;;;;;;11.73;2.17;;;;;;;;;;5101485;28;20524;-64
2023/06/14 12:36:10;;;;;;;7.13;2.10;;;;;;;;;;5082198;28;20238;-64
2023/06/14 12:38:37;;;;;;;3.63;1.90;;;;;;;;;;5099111;28;20173;-64
2023/06/14 12:41:03;;;;;;;5.87;1.80;;;;;;;;;;5081734;28;20181;-63
2023/06/14 12:43:29;;;;;;;4.10;1.83;;;;;;;;;;5082238;28;20177;-63
2023/06/14 12:45:55;;;;;;;4.97;2.30;;;;;;;;;;5100208;28;20183;-63
2023/06/14 12:48:21;;;;;;;5.03;2.20;;;;;;;;;;5099329;28;20200;-63
2023/06/14 12:50:48;;;;;;;6.53;2.70;;;;;;;;;;5097231;28;20185;-62
2023/06/14 12:53:14;;;;;;;4.83;2.20;;;;;;;;;;5079793;28;20655;-62
2023/06/14 12:55:40;;;;;;;6.30;2.47;;;;;;;;;;5098874;28;20086;-63
2023/06/14 12:58:06;;;;;;;8.32;2.60;;;;;;;;;;5078642;28;20385;-65
2023/06/14 13:00:32;;;;;;;8.00;2.40;;;;;;;;;;5098469;28;20272;-63
2023/06/14 13:02:58;;;;;;;3.97;2.30;;;;;;;;;;5097789;28;20499;-63
2023/06/14 13:05:25;;;;;;;5.47;2.50;;;;;;;;;;5078727;28;20382;-64
2023/06/14 13:07:51;;;;;;;3.75;2.60;;;;;;;;;;5097230;28;20444;-63
2023/06/14 13:10:17;;;;;;;7.47;2.78;;;;;;;;;;5096007;28;20367;-64
2023/06/14 13:12:44;;;;;;;6.47;2.78;;;;;;;;;;5095658;28;20954;-64
2023/06/14 13:15:10;;;;;;;3.38;2.60;;;;;;;;;;5076847;28;20443;-64
2023/06/14 13:17:40;;;;;;;2.95;2.40;;;;;;;;;;5095412;28;20421;-64
2023/06/14 13:20:06;;;;;;;5.47;2.80;;;;;;;;;;5094993;28;20382;-64
2023/06/14 13:22:33;;;;;;;6.45;2.50;;;;;;;;;;5076650;28;20390;-64
2023/06/14 13:24:59;;;;;;;7.67;2.97;;;;;;;;;;5094602;28;20382;-64
2023/06/14 13:27:26;;;;;;;5.55;2.60;;;;;;;;;;5111483;22;20503;-66
2023/06/14 13:29:52;;;;;;;7.23;2.83;;;;;;;;;;5074420;28;20788;-68
2023/06/14 13:32:18;;;;;;;2.93;2.73;;;;;;;;;;5092542;28;20381;-68
2023/06/14 13:34:43;;;;;;;7.17;3.03;;;;;;;;;;5074506;28;20375;-66
2023/06/14 13:37:09;;;;;;;9.83;3.07;;;;;;;;;;5092962;28;20862;-65
2023/06/14 13:39:37;;;;;;;3.03;2.67;;;;;;;;;;5075523;28;20189;-66
2023/06/14 13:42:03;;;;;;;5.27;2.67;;;;;;;;;;5093911;28;20177;-66
2023/06/14 13:44:29;;;;;;;24.07;2.87;;;;;;;;;;5075411;28;20673;-66
2023/06/14 13:46:55;;;;;;;3.10;2.80;;;;;;;;;;5093331;28;20228;-66
2023/06/14 13:49:21;;;;;;;4.87;2.97;;;;;;;;;;5075225;28;20212;-66
2023/06/14 13:51:47;;;;;;;3.40;2.60;;;;;;;;;;5093598;28;20174;-66
2023/06/14 13:54:16;;;;;;;6.07;2.60;;;;;;;;;;5093580;28;20169;-66
2023/06/14 13:56:42;;;;;;;3.50;2.43;;;;;;;;;;5093808;28;20218;-66
2023/06/14 13:59:09;;;;;;;4.30;2.40;;;;;;;;;;5076110;28;20233;-66
2023/06/14 14:01:35;;;;;;;4.10;2.87;;;;;;;;;;5093706;28;20176;-66
2023/06/14 14:04:01;;;;;;;3.60;2.90;;;;;;;;;;5094194;28;20564;-66
2023/06/14 14:06:27;;;;;;;4.43;2.57;;;;;;;;;;5093949;28;20196;-66
2023/06/14 14:08:53;;;;;;;7.80;3.40;;;;;;;;;;5075197;28;20350;-66
2023/06/14 14:11:20;;;;;;;5.10;2.70;;;;;;;;;;5093625;28;20654;-66
2023/06/14 14:13:46;;;;;;;4.67;2.53;;;;;;;;;;5075157;28;20199;-65
2023/06/14 14:16:13;;;;;;;5.87;2.43;;;;;;;;;;5093350;28;20258;-66
2023/06/14 14:18:39;;;;;;;6.37;2.80;;;;;;;;;;5093175;28;20667;-66
2023/06/14 14:21:05;;;;;;;2.93;2.33;;;;;;;;;;5093790;28;20205;-66
2023/06/14 14:23:31;;;;;;;3.00;2.57;;;;;;;;;;5075181;28;20177;-67
2023/06/14 14:25:57;;;;;;;2.57;2.37;;;;;;;;;;5075843;28;20239;-65
2023/06/14 14:28:23;;;;;;;3.40;2.63;;;;;;;;;;5093338;28;20216;-66
2023/06/14 14:30:49;;;;;;;7.27;2.80;;;;;;;;;;5093245;28;20173;-67
2023/06/14 14:33:16;;;;;;;3.70;2.90;;;;;;;;;;5093128;28;20200;-67
2023/06/14 14:35:46;;;;;;;4.07;2.60;;;;;;;;;;5075066;28;20173;-67
2023/06/14 14:38:12;;;;;;;3.20;2.70;;;;;;;;;;5074835;28;20229;-67
2023/06/14 14:40:40;;;;;;;6.47;3.63;;;;;;;;;;5074902;28;20263;-67